Cheyenne Mountain AFB, Colorado
Current Conditions -  °F | °C
As of 9:54 AM on Friday 31 Oct 2014 (Local Time) from KCOS Reporting Station
Broken Clouds Broken Clouds  
Wind Chill: 30°   Ceiling: 25000
Heat Index: 36°   Visibility: 10mi
Dew Point: 28°   Wind: 8mph
Humidity: 73%   Direction: 130°SE
Pressure: 30.41"   Gusts: NA
Location:  38.8076°N, 104.704°W
Report Text: KCOS 311554Z 13007KT 10SM SCT014 SCT200 BKN250 02/M02 A3041 RMK AO2 SLP299 T00221022
Loading
Personal Weather Stations






























Interactive Weather Map
Tropical Storm Tracking
New forecast layout! Learn more

10-Day Weather Forecast

Advertisements
Track Severe Weather on mobile